Carlos Cunha — CUET2 — position and weather

sailwx.info

Track history (hours):
 
Tides and Currents Weather Stations Pressure Air Temp Water Temp Dewpoint Dewpoint Depression Visibility Wind Speed Wind Dir Waves Ship Positions

Carlos Cunha

Last reported at 2017-Oct-30 00:15 UTC. Time now 2017-Dec-11 22:53 UTC.
Position N 39°17' W 015°44'.
Warning: this ship's position is 42 days out of date.

Length 21 m.

Type: Fishing. MMSI: 263422240.

Date/timePositionNaut miles runAvg speedWind from/ knotsBaromVisibWave heightAir tempDewpointWater temp
2017-Oct-30 00:15N 39°17' W 015°44'2 8.2
2017-Oct-30 00:00N 39°16' W 015°41'4 8.5
2017-Oct-29 23:30N 39°15' W 015°36'4 8.6
2017-Oct-29 23:01N 39°14' W 015°31'15 8.3
2017-Oct-29 21:14N 39°11' W 015°12'2 8.0
2017-Oct-29 20:57N 39°10' W 015°09'18 8.0
2017-Oct-29 18:43N 39°05' W 014°47'2 8.4
2017-Oct-29 18:28N 39°05' W 014°45'4 8.5
2017-Oct-29 18:00N 39°04' W 014°39'5 8.9
2017-Oct-29 17:28N 39°03' W 014°34'4 8.9
2017-Oct-29 17:00N 39°02' W 014°28'29 9.0
2017-Oct-29 13:44N 38°54' W 013°52'76 8.4
2017-Oct-29 04:45N 38°35' W 012°18'2 8.5
2017-Oct-29 04:30N 38°34' W 012°16'4 8.6
2017-Oct-29 04:00N 38°33' W 012°11'77 8.6
2017-Oct-28 19:01N 38°11' W 010°36'5 9.2
2017-Oct-28 18:30N 38°10' W 010°31'5 9.2
2017-Oct-28 18:01N 38°09' W 010°25'5 9.1
2017-Oct-28 17:30N 38°08' W 010°19'4 8.8
2017-Oct-28 17:01N 38°06' W 010°14'4 8.9
2017-Oct-28 16:31N 38°05' W 010°09'4 8.7
2017-Oct-28 16:00N 38°04' W 010°03'4 8.4
2017-Oct-28 15:31N 38°03' W 009°58'4 8.5
2017-Oct-28 15:00N 38°01' W 009°53'4 8.7
2017-Oct-28 14:30N 38°00' W 009°48'4 8.8
2017-Oct-28 14:00N 37°59' W 009°43'4 8.7
2017-Oct-28 13:30N 37°58' W 009°37'4 8.8
2017-Oct-28 13:00N 37°57' W 009°32'3 6.4
2017-Oct-28 12:29N 37°54' W 009°30'5 8.1
2017-Oct-28 11:55N 37°49' W 009°31'7 7.9
2017-Oct-28 10:59N 37°42' W 009°33'3 6.9
2017-Oct-28 10:30N 37°39' W 009°31'13 5.6
2017-Oct-28 08:11N 37°28' W 009°22'1 4.2
2017-Oct-28 08:00N 37°28' W 009°21'1 1.3
2017-Oct-28 07:30N 37°29' W 009°21'3 6.0
2017-Oct-28 07:00N 37°31' W 009°19'3 5.9
2017-Oct-28 06:30N 37°33' W 009°22'3 5.9
2017-Oct-28 06:00N 37°36' W 009°25'1 1.8
2017-Oct-28 05:26N 37°37' W 009°24'0 0.5
2017-Oct-28 05:00N 37°36' W 009°24'0 0.3
2017-Oct-28 04:30N 37°36' W 009°24'1 1.2
2017-Oct-28 04:00N 37°37' W 009°23'0 0.2
2017-Oct-28 03:30N 37°37' W 009°23'0 0.4
2017-Oct-28 03:00N 37°37' W 009°23'0 0.7
2017-Oct-28 02:30N 37°37' W 009°23'0 0.3
2017-Oct-28 02:00N 37°37' W 009°23'0 0.3
2017-Oct-28 01:31N 37°37' W 009°23'0 0.5
2017-Oct-28 01:01N 37°37' W 009°23'0 0.4
2017-Oct-28 00:30N 37°38' W 009°23'0 0.5
2017-Oct-28 00:01N 37°38' W 009°23'1 1.4
2017-Oct-27 23:30N 37°38' W 009°22'0 0.4
2017-Oct-27 23:01N 37°39' W 009°22'1 1.1
2017-Oct-27 22:30N 37°39' W 009°22'1 0.6
2017-Oct-27 21:07N 37°40' W 009°22'0 0.1
2017-Oct-27 20:31N 37°40' W 009°22'0 0.3
2017-Oct-27 20:27N 37°40' W 009°22'4 7.8
2017-Oct-27 19:57N 37°36' W 009°23'5 1.8
2017-Oct-27 17:13N 37°41' W 009°25'10 7.2
2017-Oct-27 15:50N 37°51' W 009°27'0 0.8
2017-Oct-27 15:29N 37°51' W 009°27'0 0.7
2017-Oct-27 15:00N 37°51' W 009°27'0 0.8
2017-Oct-27 14:31N 37°52' W 009°26'0 0.7
2017-Oct-27 14:01N 37°52' W 009°26'1 1.0
2017-Oct-27 13:10N 37°52' W 009°27'5 3.0
2017-Oct-27 11:29N 37°53' W 009°33'1 1.6
2017-Oct-27 11:00N 37°52' W 009°34'2 3.7
2017-Oct-27 10:30N 37°50' W 009°35'1 2.9
2017-Oct-27 10:00N 37°49' W 009°35'3 5.2
2017-Oct-27 09:30N 37°46' W 009°34'2 4.9
2017-Oct-27 09:01N 37°44' W 009°33'3 7.0
2017-Oct-27 08:30N 37°41' W 009°31'3 5.5
2017-Oct-27 08:00N 37°39' W 009°28'3 5.7
2017-Oct-27 07:30N 37°37' W 009°25'3 6.3
2017-Oct-27 06:59N 37°34' W 009°23'5 3.2
2017-Oct-27 05:23N 37°40' W 009°23'0 0.3
2017-Oct-27 04:44N 37°40' W 009°23'0 0.3
2017-Oct-27 04:30N 37°40' W 009°23'0 0.3
2017-Oct-27 03:56N 37°40' W 009°23'0 0.7
2017-Oct-27 03:31N 37°40' W 009°23'0 0.3
2017-Oct-27 02:34N 37°40' W 009°22'1 0.2
2017-Oct-27 00:19N 37°40' W 009°22'1 0.7
2017-Oct-26 23:30N 37°41' W 009°22'1 1.3
2017-Oct-26 23:00N 37°42' W 009°21'0 0.6
2017-Oct-26 22:30N 37°42' W 009°22'0 0.6
2017-Oct-26 22:00N 37°42' W 009°22'0 0.6
2017-Oct-26 21:30N 37°42' W 009°22'1 2.0
2017-Oct-26 20:50N 37°44' W 009°22'0 0.2
2017-Oct-26 18:59N 37°44' W 009°22'0 0.2
2017-Oct-26 18:18N 37°44' W 009°22'0 0.3
2017-Oct-26 18:00N 37°44' W 009°22'0 0.3
2017-Oct-26 17:31N 37°44' W 009°22'0 0.2
2017-Oct-26 16:32N 37°44' W 009°22'0 0.7
2017-Oct-26 16:25N 37°44' W 009°22'0 0.3
2017-Oct-26 16:01N 37°44' W 009°22'0 0.5
2017-Oct-26 15:31N 37°44' W 009°22'0 0.7
2017-Oct-26 15:00N 37°44' W 009°22'0 0.7
2017-Oct-26 14:31N 37°44' W 009°22'0 0.5
2017-Oct-26 14:00N 37°45' W 009°22'3 5.8
2017-Oct-26 13:30N 37°42' W 009°21'3 3.5
2017-Oct-26 12:33N 37°39' W 009°24'0 8.3
2017-Oct-26 12:30N 37°40' W 009°24'4 8.3
2017-Oct-26 12:00N 37°44' W 009°24'2 2.7
2017-Oct-26 11:24N 37°46' W 009°25'2 2.0
2017-Oct-26 10:30N 37°47' W 009°25'4 8.0
2017-Oct-26 10:00N 37°51' W 009°25'4 7.7
2017-Oct-26 09:30N 37°55' W 009°26'4 7.1
2017-Oct-26 09:00N 37°58' W 009°24'3 5.4
2017-Oct-26 08:30N 38°01' W 009°24'2 4.7
2017-Oct-26 08:00N 38°03' W 009°26'4 8.5
2017-Oct-26 07:30N 38°05' W 009°31'3 5.8
2017-Oct-26 06:55N 38°07' W 009°34'21 6.8
2017-Oct-26 03:52N 38°28' W 009°40'3 8.3
2017-Oct-26 03:30N 38°31' W 009°39'4 8.1
2017-Oct-26 03:00N 38°35' W 009°38'4 7.9
2017-Oct-26 02:31N 38°38' W 009°37'4 8.3
2017-Oct-26 02:00N 38°43' W 009°36'4 8.5
2017-Oct-26 01:31N 38°47' W 009°35'4 8.7
2017-Oct-26 01:01N 38°51' W 009°34'4 8.7
2017-Oct-26 00:30N 38°55' W 009°33'4 8.4
2017-Oct-26 00:00N 38°60' W 009°32'4 8.5
2017-Oct-25 23:31N 39°04' W 009°32'4 8.7
2017-Oct-25 23:00N 39°08' W 009°31'  
2017-Oct-21 23:26N 39°20' W 009°28'4 7.5
2017-Oct-21 22:58N 39°16' W 009°29'3 7.7
2017-Oct-21 22:30N 39°13' W 009°29'4 7.7
2017-Oct-21 22:00N 39°09' W 009°30'4 7.5
2017-Oct-21 21:30N 39°05' W 009°30'4 7.4
2017-Oct-21 21:00N 39°01' W 009°31'4 7.6
2017-Oct-21 20:30N 38°58' W 009°32'4 7.6
2017-Oct-21 20:00N 38°54' W 009°32'4 7.4
2017-Oct-21 19:30N 38°50' W 009°33'3 7.0
2017-Oct-21 19:00N 38°47' W 009°33'4 7.4
2017-Oct-21 18:30N 38°43' W 009°34'4 7.6
2017-Oct-21 18:00N 38°39' W 009°33'4 8.1
2017-Oct-21 17:30N 38°35' W 009°32'4 8.4
2017-Oct-21 17:01N 38°31' W 009°31'4 8.3
2017-Oct-21 16:30N 38°27' W 009°30'4 8.2
2017-Oct-21 16:00N 38°23' W 009°30'4 7.6
2017-Oct-21 15:30N 38°19' W 009°29'4 7.3
2017-Oct-21 15:00N 38°16' W 009°29'9 7.8
2017-Oct-21 13:55N 38°07' W 009°28'3 7.7
2017-Oct-21 13:30N 38°04' W 009°27'4 7.9
2017-Oct-21 13:00N 38°00' W 009°27'9 7.9
2017-Oct-21 11:55N 37°51' W 009°26'2 0.1
2017-Oct-20 15:32N 37°53' W 009°24'0 5.8
2017-Oct-20 15:27N 37°53' W 009°24'10 1.6
2017-Oct-20 09:12N 37°43' W 009°22'1 3.0
2017-Oct-20 08:58N 37°44' W 009°22'0 0.7
2017-Oct-20 08:31N 37°44' W 009°21'1 1.2
2017-Oct-20 08:00N 37°44' W 009°21'5 6.7
2017-Oct-20 07:12N 37°50' W 009°20'2 7.1
2017-Oct-20 06:57N 37°51' W 009°20'1 1.8
2017-Oct-20 06:31N 37°52' W 009°20'0 0.7
2017-Oct-20 06:00N 37°52' W 009°19'0 0.9
2017-Oct-20 05:30N 37°52' W 009°20'0 0.8
2017-Oct-20 04:55N 37°53' W 009°20'0 0.4
2017-Oct-20 04:31N 37°53' W 009°20'0 0.5
2017-Oct-20 04:01N 37°53' W 009°20'0 0.4
2017-Oct-20 03:29N 37°53' W 009°21'1 1.3
2017-Oct-20 03:00N 37°53' W 009°20'0 0.6
2017-Oct-20 02:30N 37°53' W 009°20'0 0.6
2017-Oct-20 02:01N 37°54' W 009°20'1 1.0
2017-Oct-20 01:30N 37°54' W 009°19'0 0.7
2017-Oct-20 01:00N 37°54' W 009°20'0 0.7
2017-Oct-20 00:30N 37°54' W 009°20'  
Track history (hours):
 
Tides and Currents Weather Stations Pressure Air Temp Water Temp Dewpoint Dewpoint Depression Visibility Wind Speed Wind Dir Waves Ship Positions

Carlos Cunha

Last reported at 2017-Oct-30 00:15 UTC. Time now 2017-Dec-11 22:53 UTC.
Position N 39°17' W 015°44'.
Warning: this ship's position is 42 days out of date.

Length 21 m.

Type: Fishing. MMSI: 263422240.

Date/timePositionNaut miles runAvg speedWind from/ knotsBaromVisibWave heightAir tempDewpointWater temp
2017-Oct-30 00:15N 39°17' W 015°44'2 8.2
2017-Oct-30 00:00N 39°16' W 015°41'4 8.5
2017-Oct-29 23:30N 39°15' W 015°36'4 8.6
2017-Oct-29 23:01N 39°14' W 015°31'15 8.3
2017-Oct-29 21:14N 39°11' W 015°12'2 8.0
2017-Oct-29 20:57N 39°10' W 015°09'18 8.0
2017-Oct-29 18:43N 39°05' W 014°47'2 8.4
2017-Oct-29 18:28N 39°05' W 014°45'4 8.5
2017-Oct-29 18:00N 39°04' W 014°39'5 8.9
2017-Oct-29 17:28N 39°03' W 014°34'4 8.9
2017-Oct-29 17:00N 39°02' W 014°28'29 9.0
2017-Oct-29 13:44N 38°54' W 013°52'76 8.4
2017-Oct-29 04:45N 38°35' W 012°18'2 8.5
2017-Oct-29 04:30N 38°34' W 012°16'4 8.6
2017-Oct-29 04:00N 38°33' W 012°11'77 8.6
2017-Oct-28 19:01N 38°11' W 010°36'5 9.2
2017-Oct-28 18:30N 38°10' W 010°31'5 9.2
2017-Oct-28 18:01N 38°09' W 010°25'5 9.1
2017-Oct-28 17:30N 38°08' W 010°19'4 8.8
2017-Oct-28 17:01N 38°06' W 010°14'4 8.9
2017-Oct-28 16:31N 38°05' W 010°09'4 8.7
2017-Oct-28 16:00N 38°04' W 010°03'4 8.4
2017-Oct-28 15:31N 38°03' W 009°58'4 8.5
2017-Oct-28 15:00N 38°01' W 009°53'4 8.7
2017-Oct-28 14:30N 38°00' W 009°48'4 8.8
2017-Oct-28 14:00N 37°59' W 009°43'4 8.7
2017-Oct-28 13:30N 37°58' W 009°37'4 8.8
2017-Oct-28 13:00N 37°57' W 009°32'3 6.4
2017-Oct-28 12:29N 37°54' W 009°30'5 8.1
2017-Oct-28 11:55N 37°49' W 009°31'7 7.9
2017-Oct-28 10:59N 37°42' W 009°33'3 6.9
2017-Oct-28 10:30N 37°39' W 009°31'13 5.6
2017-Oct-28 08:11N 37°28' W 009°22'1 4.2
2017-Oct-28 08:00N 37°28' W 009°21'1 1.3
2017-Oct-28 07:30N 37°29' W 009°21'3 6.0
2017-Oct-28 07:00N 37°31' W 009°19'3 5.9
2017-Oct-28 06:30N 37°33' W 009°22'3 5.9
2017-Oct-28 06:00N 37°36' W 009°25'1 1.8
2017-Oct-28 05:26N 37°37' W 009°24'0 0.5
2017-Oct-28 05:00N 37°36' W 009°24'0 0.3
2017-Oct-28 04:30N 37°36' W 009°24'1 1.2
2017-Oct-28 04:00N 37°37' W 009°23'0 0.2
2017-Oct-28 03:30N 37°37' W 009°23'0 0.4
2017-Oct-28 03:00N 37°37' W 009°23'0 0.7
2017-Oct-28 02:30N 37°37' W 009°23'0 0.3
2017-Oct-28 02:00N 37°37' W 009°23'0 0.3
2017-Oct-28 01:31N 37°37' W 009°23'0 0.5
2017-Oct-28 01:01N 37°37' W 009°23'0 0.4
2017-Oct-28 00:30N 37°38' W 009°23'0 0.5
2017-Oct-28 00:01N 37°38' W 009°23'1 1.4
2017-Oct-27 23:30N 37°38' W 009°22'0 0.4
2017-Oct-27 23:01N 37°39' W 009°22'1 1.1
2017-Oct-27 22:30N 37°39' W 009°22'1 0.6
2017-Oct-27 21:07N 37°40' W 009°22'0 0.1
2017-Oct-27 20:31N 37°40' W 009°22'0 0.3
2017-Oct-27 20:27N 37°40' W 009°22'4 7.8
2017-Oct-27 19:57N 37°36' W 009°23'5 1.8
2017-Oct-27 17:13N 37°41' W 009°25'10 7.2
2017-Oct-27 15:50N 37°51' W 009°27'0 0.8
2017-Oct-27 15:29N 37°51' W 009°27'0 0.7
2017-Oct-27 15:00N 37°51' W 009°27'0 0.8
2017-Oct-27 14:31N 37°52' W 009°26'0 0.7
2017-Oct-27 14:01N 37°52' W 009°26'1 1.0
2017-Oct-27 13:10N 37°52' W 009°27'5 3.0
2017-Oct-27 11:29N 37°53' W 009°33'1 1.6
2017-Oct-27 11:00N 37°52' W 009°34'2 3.7
2017-Oct-27 10:30N 37°50' W 009°35'1 2.9
2017-Oct-27 10:00N 37°49' W 009°35'3 5.2
2017-Oct-27 09:30N 37°46' W 009°34'2 4.9
2017-Oct-27 09:01N 37°44' W 009°33'3 7.0
2017-Oct-27 08:30N 37°41' W 009°31'3 5.5
2017-Oct-27 08:00N 37°39' W 009°28'3 5.7
2017-Oct-27 07:30N 37°37' W 009°25'3 6.3
2017-Oct-27 06:59N 37°34' W 009°23'5 3.2
2017-Oct-27 05:23N 37°40' W 009°23'0 0.3
2017-Oct-27 04:44N 37°40' W 009°23'0 0.3
2017-Oct-27 04:30N 37°40' W 009°23'0 0.3
2017-Oct-27 03:56N 37°40' W 009°23'0 0.7
2017-Oct-27 03:31N 37°40' W 009°23'0 0.3
2017-Oct-27 02:34N 37°40' W 009°22'1 0.2
2017-Oct-27 00:19N 37°40' W 009°22'1 0.7
2017-Oct-26 23:30N 37°41' W 009°22'1 1.3
2017-Oct-26 23:00N 37°42' W 009°21'0 0.6
2017-Oct-26 22:30N 37°42' W 009°22'0 0.6
2017-Oct-26 22:00N 37°42' W 009°22'0 0.6
2017-Oct-26 21:30N 37°42' W 009°22'1 2.0
2017-Oct-26 20:50N 37°44' W 009°22'0 0.2
2017-Oct-26 18:59N 37°44' W 009°22'0 0.2
2017-Oct-26 18:18N 37°44' W 009°22'0 0.3
2017-Oct-26 18:00N 37°44' W 009°22'0 0.3
2017-Oct-26 17:31N 37°44' W 009°22'0 0.2
2017-Oct-26 16:32N 37°44' W 009°22'0 0.7
2017-Oct-26 16:25N 37°44' W 009°22'0 0.3
2017-Oct-26 16:01N 37°44' W 009°22'0 0.5
2017-Oct-26 15:31N 37°44' W 009°22'0 0.7
2017-Oct-26 15:00N 37°44' W 009°22'0 0.7
2017-Oct-26 14:31N 37°44' W 009°22'0 0.5
2017-Oct-26 14:00N 37°45' W 009°22'3 5.8
2017-Oct-26 13:30N 37°42' W 009°21'3 3.5
2017-Oct-26 12:33N 37°39' W 009°24'0 8.3
2017-Oct-26 12:30N 37°40' W 009°24'4 8.3
2017-Oct-26 12:00N 37°44' W 009°24'2 2.7
2017-Oct-26 11:24N 37°46' W 009°25'2 2.0
2017-Oct-26 10:30N 37°47' W 009°25'4 8.0
2017-Oct-26 10:00N 37°51' W 009°25'4 7.7
2017-Oct-26 09:30N 37°55' W 009°26'4 7.1
2017-Oct-26 09:00N 37°58' W 009°24'3 5.4
2017-Oct-26 08:30N 38°01' W 009°24'2 4.7
2017-Oct-26 08:00N 38°03' W 009°26'4 8.5
2017-Oct-26 07:30N 38°05' W 009°31'3 5.8
2017-Oct-26 06:55N 38°07' W 009°34'21 6.8
2017-Oct-26 03:52N 38°28' W 009°40'3 8.3
2017-Oct-26 03:30N 38°31' W 009°39'4 8.1
2017-Oct-26 03:00N 38°35' W 009°38'4 7.9
2017-Oct-26 02:31N 38°38' W 009°37'4 8.3
2017-Oct-26 02:00N 38°43' W 009°36'4 8.5
2017-Oct-26 01:31N 38°47' W 009°35'4 8.7
2017-Oct-26 01:01N 38°51' W 009°34'4 8.7
2017-Oct-26 00:30N 38°55' W 009°33'4 8.4
2017-Oct-26 00:00N 38°60' W 009°32'4 8.5
2017-Oct-25 23:31N 39°04' W 009°32'4 8.7
2017-Oct-25 23:00N 39°08' W 009°31'  
2017-Oct-21 23:26N 39°20' W 009°28'4 7.5
2017-Oct-21 22:58N 39°16' W 009°29'3 7.7
2017-Oct-21 22:30N 39°13' W 009°29'4 7.7
2017-Oct-21 22:00N 39°09' W 009°30'4 7.5
2017-Oct-21 21:30N 39°05' W 009°30'4 7.4
2017-Oct-21 21:00N 39°01' W 009°31'4 7.6
2017-Oct-21 20:30N 38°58' W 009°32'4 7.6
2017-Oct-21 20:00N 38°54' W 009°32'4 7.4
2017-Oct-21 19:30N 38°50' W 009°33'3 7.0
2017-Oct-21 19:00N 38°47' W 009°33'4 7.4
2017-Oct-21 18:30N 38°43' W 009°34'4 7.6
2017-Oct-21 18:00N 38°39' W 009°33'4 8.1
2017-Oct-21 17:30N 38°35' W 009°32'4 8.4
2017-Oct-21 17:01N 38°31' W 009°31'4 8.3
2017-Oct-21 16:30N 38°27' W 009°30'4 8.2
2017-Oct-21 16:00N 38°23' W 009°30'4 7.6
2017-Oct-21 15:30N 38°19' W 009°29'4 7.3
2017-Oct-21 15:00N 38°16' W 009°29'9 7.8
2017-Oct-21 13:55N 38°07' W 009°28'3 7.7
2017-Oct-21 13:30N 38°04' W 009°27'4 7.9
2017-Oct-21 13:00N 38°00' W 009°27'9 7.9
2017-Oct-21 11:55N 37°51' W 009°26'2 0.1
2017-Oct-20 15:32N 37°53' W 009°24'0 5.8
2017-Oct-20 15:27N 37°53' W 009°24'10 1.6
2017-Oct-20 09:12N 37°43' W 009°22'1 3.0
2017-Oct-20 08:58N 37°44' W 009°22'0 0.7
2017-Oct-20 08:31N 37°44' W 009°21'1 1.2
2017-Oct-20 08:00N 37°44' W 009°21'5 6.7
2017-Oct-20 07:12N 37°50' W 009°20'2 7.1
2017-Oct-20 06:57N 37°51' W 009°20'1 1.8
2017-Oct-20 06:31N 37°52' W 009°20'0 0.7
2017-Oct-20 06:00N 37°52' W 009°19'0 0.9
2017-Oct-20 05:30N 37°52' W 009°20'0 0.8
2017-Oct-20 04:55N 37°53' W 009°20'0 0.4
2017-Oct-20 04:31N 37°53' W 009°20'0 0.5
2017-Oct-20 04:01N 37°53' W 009°20'0 0.4
2017-Oct-20 03:29N 37°53' W 009°21'1 1.3
2017-Oct-20 03:00N 37°53' W 009°20'0 0.6
2017-Oct-20 02:30N 37°53' W 009°20'0 0.6
2017-Oct-20 02:01N 37°54' W 009°20'1 1.0
2017-Oct-20 01:30N 37°54' W 009°19'0 0.7
2017-Oct-20 01:00N 37°54' W 009°20'0 0.7
2017-Oct-20 00:30N 37°54' W 009°20'  

Dump ship's entire track history